Time;durP1;ratioP1;P1;durP2;ratioP2;P2;SDS_P1;SDS_P2;PMS_P1;PMS_P2;Temp;Humidity;BMP_temperature;BMP_pressure;BME280_temperature;BME280_humidity;BME280_pressure;Samples;Min_cycle;Max_cycle;Signal;HPM_P1;HPM_P2
2023/04/03 00:00:17;;;;;;;1.90;0.57;;;4.90;99.90;;;;;;5001777;28;20699;-84
2023/04/03 00:02:45;;;;;;;1.42;0.40;;;4.90;99.90;;;;;;5006840;28;20444;-83
2023/04/03 00:05:11;;;;;;;0.80;0.40;;;4.90;99.90;;;;;;5005631;28;20030;-84
2023/04/03 00:07:37;;;;;;;2.58;0.52;;;4.80;99.90;;;;;;5002351;28;20865;-84
2023/04/03 00:10:03;;;;;;;2.05;0.63;;;4.80;99.90;;;;;;5004079;28;20042;-84
2023/04/03 00:12:29;;;;;;;2.75;0.60;;;4.80;99.90;;;;;;5007705;28;20042;-84
2023/04/03 00:14:54;;;;;;;2.58;0.45;;;4.70;99.90;;;;;;5005969;28;20049;-84
2023/04/03 00:17:20;;;;;;;1.85;0.45;;;4.70;99.90;;;;;;4997408;28;20121;-84
2023/04/03 00:19:46;;;;;;;1.45;0.50;;;4.70;99.90;;;;;;5002685;28;20121;-85
2023/04/03 00:22:11;;;;;;;1.75;0.50;;;4.70;99.90;;;;;;5004990;28;20041;-84
2023/04/03 00:24:37;;;;;;;1.70;0.60;;;4.60;99.90;;;;;;5005359;28;20463;-84
2023/04/03 00:27:03;;;;;;;3.30;0.52;;;4.60;99.90;;;;;;5003086;28;20169;-84
2023/04/03 00:29:29;;;;;;;2.30;0.55;;;4.60;99.90;;;;;;5005120;28;20076;-84
2023/04/03 00:31:54;;;;;;;1.65;0.40;;;4.50;99.90;;;;;;5000471;28;20042;-84
2023/04/03 00:34:23;;;;;;;2.00;0.50;;;4.60;99.90;;;;;;4997678;28;20089;-85
2023/04/03 00:36:49;;;;;;;2.70;0.60;;;4.60;99.90;;;;;;5002549;28;20049;-84
2023/04/03 00:39:14;;;;;;;2.95;0.50;;;4.50;99.90;;;;;;4999462;28;20050;-84
2023/04/03 00:41:40;;;;;;;1.70;0.60;;;4.60;99.90;;;;;;4999419;28;20042;-84
2023/04/03 00:44:32;;;;;;;2.80;0.45;;;4.50;99.90;;;;;;5001312;28;20502;-84
2023/04/03 00:46:59;;;;;;;2.13;0.50;;;4.50;99.90;;;;;;5000145;28;20271;-83
2023/04/03 00:49:25;;;;;;;4.40;0.68;;;4.50;99.90;;;;;;4987160;28;20065;-83
2023/04/03 00:51:51;;;;;;;2.90;0.70;;;4.50;99.90;;;;;;5000334;28;20089;-83
2023/04/03 00:54:17;;;;;;;4.35;0.85;;;4.50;99.90;;;;;;4999296;28;20050;-84
2023/04/03 00:56:45;;;;;;;1.88;0.60;;;4.50;99.90;;;;;;4999381;28;20046;-84
2023/04/03 00:59:14;;;;;;;2.15;0.63;;;4.40;99.90;;;;;;4989156;28;20038;-84
2023/04/03 01:01:41;;;;;;;3.20;0.70;;;4.40;99.90;;;;;;5005311;28;20038;-84
2023/04/03 01:04:28;;;;;;;3.50;0.70;;;4.40;99.90;;;;;;5008191;28;20041;-83
2023/04/03 01:06:57;;;;;;;2.33;0.68;;;4.30;99.90;;;;;;5004962;28;20049;-84
2023/04/03 01:09:23;;;;;;;2.53;0.70;;;4.30;99.90;;;;;;5008074;28;20113;-83
2023/04/03 01:11:49;;;;;;;2.92;1.05;;;4.20;99.90;;;;;;5000339;28;20599;-84
2023/04/03 01:14:17;;;;;;;1.35;0.52;;;4.20;99.90;;;;;;5004221;28;20042;-83
2023/04/03 01:16:51;;;;;;;2.47;0.70;;;4.10;99.90;;;;;;4991295;28;20042;-83
2023/04/03 01:19:18;;;;;;;3.70;0.65;;;4.10;99.90;;;;;;5003202;28;20038;-83
2023/04/03 01:21:59;;;;;;;1.33;0.50;;;4.70;99.90;;;;;;5022736;28;20067;-83
2023/04/03 01:24:31;;;;;;;2.08;0.70;;;4.00;99.90;;;;;;5002663;28;20045;-84
2023/04/03 01:27:04;;;;;;;3.53;1.25;;;4.00;99.90;;;;;;5002635;28;20056;-83
2023/04/03 01:29:32;;;;;;;2.88;0.88;;;4.00;99.90;;;;;;4999256;28;20042;-84
2023/04/03 01:31:59;;;;;;;5.53;0.70;;;3.90;99.90;;;;;;4996026;28;20049;-83
2023/04/03 01:34:27;;;;;;;3.50;0.90;;;3.90;99.90;;;;;;4994667;28;20132;-84
2023/04/03 01:36:54;;;;;;;2.92;0.90;;;3.80;99.90;;;;;;4994572;28;20081;-85
2023/04/03 01:39:20;;;;;;;3.08;0.90;;;3.80;99.90;;;;;;5003839;28;20345;-83
2023/04/03 01:41:46;;;;;;;5.85;0.90;;;3.80;99.90;;;;;;5010630;28;20045;-83
2023/04/03 01:44:13;;;;;;;1.13;0.50;;;3.80;99.90;;;;;;5000293;28;20041;-84
2023/04/03 01:46:39;;;;;;;5.38;1.10;;;4.10;99.90;;;;;;4993768;28;20125;-84
2023/04/03 01:49:05;;;;;;;5.75;0.90;;;3.70;99.90;;;;;;4984975;28;20496;-84
2023/04/03 01:51:30;;;;;;;3.70;0.82;;;3.70;99.90;;;;;;5005459;28;20156;-84
2023/04/03 01:53:56;;;;;;;3.30;0.82;;;3.70;99.90;;;;;;5002443;28;20107;-84
2023/04/03 01:56:22;;;;;;;3.65;0.85;;;3.70;99.90;;;;;;5000035;28;20120;-84
2023/04/03 01:58:48;;;;;;;5.43;1.00;;;3.60;99.90;;;;;;5004436;28;20041;-84
2023/04/03 02:01:14;;;;;;;3.88;1.10;;;3.60;99.90;;;;;;5004986;28;20049;-84
2023/04/03 02:03:40;;;;;;;5.40;1.00;;;3.60;99.90;;;;;;5000133;28;20141;-84
2023/04/03 02:06:06;;;;;;;4.45;0.80;;;3.60;99.90;;;;;;5001492;28;20097;-84
2023/04/03 02:08:32;;;;;;;3.85;0.90;;;3.50;99.90;;;;;;4998541;28;20057;-84
2023/04/03 02:10:58;;;;;;;4.25;1.08;;;3.50;99.90;;;;;;5002257;28;20046;-84
2023/04/03 02:13:23;;;;;;;2.78;0.90;;;3.50;99.90;;;;;;4985343;28;20049;-84
2023/04/03 02:15:49;;;;;;;2.42;1.00;;;3.50;99.90;;;;;;4995170;28;20045;-84
2023/04/03 02:18:16;;;;;;;5.10;1.52;;;4.00;99.90;;;;;;4990712;28;20041;-84
2023/04/03 02:20:41;;;;;;;6.60;0.90;;;3.50;99.90;;;;;;5004715;28;20046;-84
2023/04/03 02:23:07;;;;;;;3.88;0.90;;;3.50;99.90;;;;;;4999546;28;20052;-83
2023/04/03 02:25:33;;;;;;;6.10;1.10;;;3.50;99.90;;;;;;5004046;28;20385;-83
2023/04/03 02:27:59;;;;;;;5.30;1.15;;;3.40;99.90;;;;;;4998406;28;20042;-83
2023/04/03 02:30:26;;;;;;;2.90;1.00;;;3.40;99.90;;;;;;5001875;28;20049;-83
2023/04/03 02:32:52;;;;;;;5.53;1.10;;;3.40;99.90;;;;;;5000144;28;20042;-83
2023/04/03 02:35:17;;;;;;;5.70;1.20;;;3.60;99.90;;;;;;4996003;28;20100;-83
2023/04/03 02:37:43;;;;;;;3.20;1.10;;;3.40;99.90;;;;;;4993777;28;20054;-83
2023/04/03 02:40:11;;;;;;;3.47;1.20;;;3.30;99.90;;;;;;4997255;28;20231;-83
2023/04/03 02:42:37;;;;;;;6.07;1.10;;;3.30;99.90;;;;;;5008073;28;20035;-83
2023/04/03 02:45:03;;;;;;;4.22;0.80;;;3.30;99.90;;;;;;4988121;28;20385;-83
2023/04/03 02:47:29;;;;;;;3.42;0.98;;;3.30;99.90;;;;;;4996726;28;20188;-84
2023/04/03 02:49:54;;;;;;;5.05;0.98;;;3.20;99.90;;;;;;5003642;28;20556;-83
2023/04/03 02:52:21;;;;;;;3.53;1.05;;;3.20;99.90;;;;;;5001853;28;20058;-83
2023/04/03 02:54:46;;;;;;;7.53;1.27;;;3.60;99.90;;;;;;4999407;28;20588;-83
2023/04/03 02:57:12;;;;;;;2.42;1.15;;;3.20;99.90;;;;;;5024727;28;20845;-84
2023/04/03 02:59:41;;;;;;;4.95;1.10;;;3.20;99.90;;;;;;4995481;28;20045;-83
2023/04/03 03:02:08;;;;;;;5.55;1.42;;;3.20;99.90;;;;;;5003712;28;20038;-84
2023/04/03 03:04:34;;;;;;;5.13;1.05;;;3.30;99.90;;;;;;5013851;28;20471;-84
2023/04/03 03:07:00;;;;;;;6.03;1.10;;;3.10;99.90;;;;;;5000536;28;20048;-83
2023/04/03 03:09:26;;;;;;;2.97;1.10;;;3.10;99.90;;;;;;5008326;28;20761;-83
2023/04/03 03:11:52;;;;;;;5.30;1.38;;;3.10;99.90;;;;;;5004949;28;20084;-83
2023/04/03 03:14:18;;;;;;;6.90;1.30;;;3.70;99.90;;;;;;5002301;28;20088;-83
2023/04/03 03:16:43;;;;;;;4.40;1.15;;;3.00;99.90;;;;;;5001270;28;20046;-83
2023/04/03 03:19:10;;;;;;;4.22;1.05;;;3.00;99.90;;;;;;5002731;28;20108;-84
2023/04/03 03:21:35;;;;;;;3.53;1.00;;;3.00;99.90;;;;;;5014130;28;20046;-83
2023/04/03 03:24:01;;;;;;;5.55;1.38;;;2.90;99.90;;;;;;4993180;28;20038;-83
2023/04/03 03:26:27;;;;;;;3.33;0.90;;;2.90;99.90;;;;;;4999123;28;20049;-83
2023/04/03 03:28:53;;;;;;;5.88;1.60;;;2.90;99.90;;;;;;4995014;28;20050;-83
2023/04/03 03:31:18;;;;;;;3.15;1.00;;;2.90;99.90;;;;;;4998535;28;20046;-83
2023/04/03 03:33:44;;;;;;;4.00;1.38;;;2.80;99.90;;;;;;4995206;28;20045;-83
2023/04/03 03:36:10;;;;;;;6.43;1.40;;;2.80;99.90;;;;;;4994835;28;20100;-83
2023/04/03 03:38:36;;;;;;;3.28;1.17;;;2.70;99.90;;;;;;4996815;28;20038;-84
2023/04/03 03:41:02;;;;;;;5.13;1.30;;;2.70;99.90;;;;;;4995506;28;20038;-83
2023/04/03 03:43:28;;;;;;;4.80;1.20;;;2.70;99.90;;;;;;5001789;28;20460;-83
2023/04/03 03:45:54;;;;;;;5.30;1.20;;;2.70;99.90;;;;;;4989532;28;20501;-83
2023/04/03 03:48:20;;;;;;;7.65;1.35;;;2.70;99.90;;;;;;5004888;28;20042;-83
2023/04/03 03:50:46;;;;;;;7.80;1.20;;;2.60;99.90;;;;;;4996747;28;20138;-83
2023/04/03 03:53:12;;;;;;;4.47;1.40;;;2.60;99.90;;;;;;5005429;28;20049;-83
2023/04/03 03:55:38;;;;;;;8.25;1.40;;;2.60;99.90;;;;;;5007374;28;20041;-83
2023/04/03 03:58:03;;;;;;;7.28;1.73;;;2.60;99.90;;;;;;5006307;28;20054;-83
2023/04/03 04:00:30;;;;;;;5.43;1.70;;;2.60;99.90;;;;;;5005248;28;20125;-84
2023/04/03 04:02:56;;;;;;;5.05;1.45;;;2.60;99.90;;;;;;5007581;28;20053;-83
2023/04/03 04:05:22;;;;;;;6.78;1.85;;;3.20;99.90;;;;;;5003804;28;20034;-84
2023/04/03 04:07:49;;;;;;;4.90;1.65;;;2.50;99.90;;;;;;4998215;28;20038;-83
2023/04/03 04:10:14;;;;;;;3.78;1.15;;;2.50;99.90;;;;;;5002882;28;20050;-83
2023/04/03 04:12:40;;;;;;;6.13;1.40;;;2.40;99.90;;;;;;5001960;28;20041;-83
2023/04/03 04:15:06;;;;;;;4.78;1.25;;;2.40;99.90;;;;;;5005380;28;20037;-83
2023/04/03 04:17:32;;;;;;;6.50;1.73;;;2.40;99.90;;;;;;5012706;28;20080;-83
2023/04/03 04:19:58;;;;;;;5.90;1.17;;;2.30;99.90;;;;;;5000418;28;20073;-83
2023/04/03 04:22:23;;;;;;;6.28;1.63;;;2.30;99.90;;;;;;4988258;28;20076;-83
2023/04/03 04:24:49;;;;;;;8.40;1.58;;;2.40;99.90;;;;;;4998603;28;20153;-83
2023/04/03 04:27:15;;;;;;;3.80;1.10;;;2.30;99.90;;;;;;5003338;28;20049;-83
2023/04/03 04:29:41;;;;;;;4.43;1.60;;;2.30;99.90;;;;;;4997360;28;20038;-83
2023/04/03 04:32:08;;;;;;;6.93;1.67;;;2.30;99.90;;;;;;4997371;28;20038;-82
2023/04/03 04:34:34;;;;;;;9.82;1.88;;;2.20;99.90;;;;;;5008437;28;20156;-83
2023/04/03 04:36:59;;;;;;;5.55;1.52;;;2.20;99.90;;;;;;4999786;28;20120;-83
2023/04/03 04:39:26;;;;;;;7.15;1.98;;;2.20;99.90;;;;;;4999026;28;20056;-83
2023/04/03 04:41:52;;;;;;;7.07;1.80;;;2.20;99.90;;;;;;5000876;28;20042;-83
2023/04/03 04:44:19;;;;;;;4.80;1.50;;;2.10;99.90;;;;;;5000013;28;20485;-83
2023/04/03 04:46:45;;;;;;;6.60;1.50;;;2.10;99.90;;;;;;4998228;28;20096;-83
2023/04/03 04:49:11;;;;;;;7.05;1.50;;;2.10;99.90;;;;;;4999468;28;20042;-83
2023/04/03 04:51:37;;;;;;;5.70;2.13;;;2.10;99.90;;;;;;4995684;28;20045;-83
2023/04/03 04:54:02;;;;;;;7.20;2.00;;;2.00;99.90;;;;;;4997590;28;20576;-83
2023/04/03 04:56:28;;;;;;;5.32;1.92;;;2.00;99.90;;;;;;4999022;28;20046;-84
2023/04/03 04:58:54;;;;;;;6.78;2.17;;;2.00;99.90;;;;;;5019427;28;20128;-83
2023/04/03 05:01:19;;;;;;;7.07;1.33;;;2.00;99.90;;;;;;4994572;28;20065;-83
2023/04/03 05:03:45;;;;;;;4.82;1.60;;;2.00;99.90;;;;;;5007781;28;20038;-83
2023/04/03 05:06:11;;;;;;;6.43;1.70;;;1.90;99.90;;;;;;5021367;28;20596;-84
2023/04/03 05:08:37;;;;;;;8.98;2.03;;;1.90;99.90;;;;;;4983126;28;20044;-83
2023/04/03 05:11:05;;;;;;;6.28;1.83;;;1.90;99.90;;;;;;4992462;28;20492;-83
2023/04/03 05:13:31;;;;;;;7.88;2.13;;;1.90;99.90;;;;;;4990586;28;20042;-83
2023/04/03 05:15:57;;;;;;;7.20;1.90;;;1.90;99.90;;;;;;4993594;28;20053;-84
2023/04/03 05:18:23;;;;;;;7.82;1.88;;;1.90;99.90;;;;;;4989803;28;20084;-84
2023/04/03 05:20:50;;;;;;;5.43;2.33;;;1.90;99.90;;;;;;4995475;28;20488;-84
2023/04/03 05:23:16;;;;;;;7.53;2.30;;;1.90;99.90;;;;;;4979609;28;20045;-83
2023/04/03 05:25:43;;;;;;;6.53;1.80;;;1.90;99.90;;;;;;4997426;28;20049;-83
2023/04/03 05:28:10;;;;;;;5.80;1.90;;;2.00;99.90;;;;;;4975686;28;20042;-84
2023/04/03 05:30:36;;;;;;;8.27;1.90;;;1.70;99.90;;;;;;5002535;28;20062;-83
2023/04/03 05:33:05;;;;;;;6.72;2.25;;;1.90;99.90;;;;;;4984171;28;20096;-83
2023/04/03 05:35:32;;;;;;;8.30;2.53;;;1.90;99.90;;;;;;4996469;28;20059;-85
2023/04/03 05:37:57;;;;;;;7.40;2.20;;;1.90;99.90;;;;;;5016027;28;20080;-90
2023/04/03 05:40:23;;;;;;;8.32;2.20;;;1.90;99.90;;;;;;5008588;28;20049;-92
2023/04/03 05:42:49;;;;;;;9.05;2.60;;;1.90;99.90;;;;;;5014369;28;20137;-93
2023/04/03 05:45:15;;;;;;;8.68;2.20;;;1.90;99.90;;;;;;5053624;22;20071;-93
2023/04/03 05:47:41;;;;;;;5.03;2.00;;;1.90;99.90;;;;;;5042504;28;20170;-96
2023/04/03 05:50:08;;;;;;;8.98;2.53;;;3.00;99.90;;;;;;5036671;28;20045;-94
2023/04/03 05:52:37;;;;;;;8.57;2.17;;;2.00;99.90;;;;;;5041909;28;20124;-94
2023/04/03 05:55:06;;;;;;;7.63;2.72;;;3.00;99.90;;;;;;5029191;28;20048;-93
2023/04/03 05:57:35;;;;;;;8.77;2.53;;;2.00;99.90;;;;;;5046863;28;20120;-95
2023/04/03 06:00:08;;;;;;;5.32;2.60;;;1.90;99.90;;;;;;5037807;28;20077;-95
2023/04/03 06:02:33;;;;;;;10.18;2.50;;;2.00;99.90;;;;;;5047818;28;20047;-93
2023/04/03 06:04:59;;;;;;;9.48;2.67;;;1.90;99.90;;;;;;5046834;28;20041;-93
2023/04/03 06:07:28;;;;;;;5.97;2.10;;;1.90;99.90;;;;;;5038035;28;20048;-94
2023/04/03 06:09:55;;;;;;;8.27;2.58;;;2.00;99.90;;;;;;5037048;28;20075;-95
2023/04/03 06:12:22;;;;;;;7.60;2.60;;;2.00;99.90;;;;;;5039970;28;20073;-96
2023/04/03 06:14:48;;;;;;;6.57;2.72;;;2.00;99.90;;;;;;5039569;28;20053;-90
2023/04/03 06:17:18;;;;;;;5.75;1.92;;;2.00;99.90;;;;;;5034521;28;20057;-91
2023/04/03 06:19:48;;;;;;;9.38;2.35;;;2.00;99.90;;;;;;5025435;28;20041;-96
2023/04/03 06:22:15;;;;;;;7.45;2.90;;;2.00;99.90;;;;;;5035883;28;20136;-94
2023/04/03 06:24:41;;;;;;;8.13;2.70;;;2.10;99.90;;;;;;5022530;28;20784;-93
2023/04/03 06:27:09;;;;;;;7.15;2.47;;;2.10;99.90;;;;;;5048438;28;20398;-96
2023/04/03 06:29:35;;;;;;;6.15;2.00;;;2.10;99.90;;;;;;5068364;23;20068;-93
2023/04/03 06:32:05;;;;;;;7.90;2.35;;;2.10;99.90;;;;;;5006610;28;20378;-93
2023/04/03 06:34:31;;;;;;;7.50;2.30;;;2.10;99.90;;;;;;5001155;28;20045;-92
2023/04/03 06:36:57;;;;;;;10.38;2.60;;;2.20;99.90;;;;;;5007107;28;20580;-94
2023/04/03 06:39:23;;;;;;;14.07;2.65;;;2.20;99.90;;;;;;5007603;28;20037;-95
2023/04/03 06:41:50;;;;;;;7.38;1.98;;;2.10;99.90;;;;;;5003572;28;20049;-87
2023/04/03 06:44:16;;;;;;;7.25;2.30;;;2.20;99.90;;;;;;4993481;28;20050;-88
2023/04/03 06:46:43;;;;;;;9.07;2.47;;;2.20;99.90;;;;;;4993462;28;20385;-87
2023/04/03 06:49:09;;;;;;;7.57;2.30;;;2.20;99.90;;;;;;4992747;28;20046;-87
2023/04/03 06:51:35;;;;;;;10.52;2.50;;;2.20;99.90;;;;;;4985447;28;20112;-85
2023/04/03 06:54:02;;;;;;;11.90;2.63;;;2.30;99.90;;;;;;4971427;28;20133;-86
2023/04/03 06:56:29;;;;;;;8.75;2.10;;;2.30;99.90;;;;;;4984690;28;20875;-86
2023/04/03 06:58:57;;;;;;;7.70;1.70;;;2.10;99.90;;;;;;4989811;28;20045;-86
2023/04/03 07:01:24;;;;;;;8.43;2.58;;;2.30;99.90;;;;;;4991803;28;20467;-86
2023/04/03 07:03:50;;;;;;;12.48;2.30;;;2.40;99.90;;;;;;4987328;28;20045;-86
2023/04/03 07:06:17;;;;;;;7.68;2.83;;;2.40;99.90;;;;;;4986303;28;20038;-86
2023/04/03 07:08:44;;;;;;;6.68;2.40;;;2.90;99.90;;;;;;4980877;28;20039;-86
2023/04/03 07:11:11;;;;;;;11.38;2.67;;;2.50;99.90;;;;;;4984692;28;20147;-86
2023/04/03 07:13:37;;;;;;;6.90;2.03;;;2.90;99.90;;;;;;4988901;28;20136;-86
2023/04/03 07:16:04;;;;;;;5.32;2.30;;;2.50;99.90;;;;;;4989789;28;20042;-86
2023/04/03 07:18:31;;;;;;;7.55;2.25;;;2.60;99.90;;;;;;4994369;28;20069;-85
2023/04/03 07:20:57;;;;;;;6.65;2.30;;;2.60;99.90;;;;;;5007219;28;20089;-86
2023/04/03 07:23:23;;;;;;;8.27;2.00;;;2.60;99.90;;;;;;4981792;28;20049;-86
2023/04/03 07:25:51;;;;;;;4.00;1.60;;;2.60;99.90;;;;;;5002900;28;20046;-86
2023/04/03 07:28:19;;;;;;;12.30;2.10;;;2.70;99.90;;;;;;4996359;28;20503;-86
2023/04/03 07:31:13;;;;;;;8.40;1.90;;;2.70;99.90;;;;;;4997706;28;20133;-86
2023/04/03 07:33:40;;;;;;;7.07;1.90;;;2.70;99.90;;;;;;4987678;28;20054;-85
2023/04/03 07:36:07;;;;;;;5.63;1.70;;;2.80;99.90;;;;;;4989362;28;20049;-86
2023/04/03 07:38:34;;;;;;;5.43;1.90;;;2.80;99.90;;;;;;4995801;28;20048;-86
2023/04/03 07:41:00;;;;;;;6.57;1.77;;;2.80;99.90;;;;;;5000402;28;20048;-85
2023/04/03 07:43:25;;;;;;;9.32;2.15;;;2.90;99.90;;;;;;4991874;28;20746;-86
2023/04/03 07:45:52;;;;;;;6.45;1.60;;;3.50;99.90;;;;;;4986053;28;20038;-87
2023/04/03 07:48:20;;;;;;;5.22;1.75;;;2.90;99.90;;;;;;4989695;28;20568;-86
2023/04/03 07:50:46;;;;;;;8.38;1.80;;;3.00;99.90;;;;;;4983099;28;20046;-86
2023/04/03 07:53:12;;;;;;;7.38;1.67;;;3.00;99.90;;;;;;4989869;28;20488;-87
2023/04/03 07:55:42;;;;;;;11.82;2.42;;;3.00;99.90;;;;;;4990555;28;20049;-87
2023/04/03 07:58:14;;;;;;;6.55;1.73;;;3.10;99.90;;;;;;4992065;28;20046;-86
2023/04/03 08:00:40;;;;;;;7.80;2.28;;;3.10;99.90;;;;;;4991083;28;20042;-87
2023/04/03 08:03:07;;;;;;;4.35;1.63;;;3.20;99.90;;;;;;4979589;28;20499;-87
2023/04/03 08:05:38;;;;;;;5.30;1.55;;;3.20;99.90;;;;;;4992866;28;20052;-87
2023/04/03 08:08:04;;;;;;;7.32;1.75;;;3.30;99.90;;;;;;4982250;28;20053;-86
2023/04/03 08:10:31;;;;;;;7.45;2.17;;;3.30;99.90;;;;;;4987906;28;20188;-86
2023/04/03 08:12:56;;;;;;;9.55;2.22;;;3.30;99.90;;;;;;4998804;28;20049;-86
2023/04/03 08:15:22;;;;;;;7.80;1.60;;;3.40;99.90;;;;;;4990331;28;20037;-86
2023/04/03 08:17:51;;;;;;;6.15;1.40;;;3.40;99.90;;;;;;4992159;28;20184;-86
2023/04/03 08:20:17;;;;;;;6.57;1.40;;;3.50;99.90;;;;;;4995329;28;20431;-86
2023/04/03 08:22:43;;;;;;;6.00;1.60;;;3.50;99.90;;;;;;4990041;28;20037;-86
2023/04/03 08:25:09;;;;;;;5.28;1.55;;;3.60;99.90;;;;;;4982885;28;20519;-86
2023/04/03 08:27:35;;;;;;;6.13;1.60;;;3.60;99.90;;;;;;4996026;28;20557;-86
2023/04/03 08:30:01;;;;;;;4.88;1.30;;;3.70;99.90;;;;;;4993604;28;20133;-86
2023/04/03 08:32:27;;;;;;;7.05;1.60;;;3.80;99.90;;;;;;4978605;28;20535;-85
2023/04/03 08:34:53;;;;;;;6.18;1.55;;;3.80;99.90;;;;;;4990844;28;20189;-85
2023/04/03 08:37:19;;;;;;;7.50;1.65;;;3.90;99.90;;;;;;4994489;28;20042;-84
2023/04/03 08:39:44;;;;;;;7.85;1.60;;;4.00;99.90;;;;;;4991943;28;20034;-84
2023/04/03 08:42:55;;;;;;;5.72;1.30;;;4.00;99.90;;;;;;4995561;28;20037;-85
2023/04/03 08:45:45;;;;;;;4.60;1.50;;;4.20;99.90;;;;;;4983652;28;20605;-84
2023/04/03 08:48:36;;;;;;;4.65;1.20;;;4.20;99.90;;;;;;4984478;28;20061;-84
2023/04/03 08:51:11;;;;;;;3.85;1.45;;;4.60;99.90;;;;;;4988512;28;20057;-84
2023/04/03 08:53:42;;;;;;;3.92;1.67;;;4.40;99.90;;;;;;4988523;28;20046;-84
2023/04/03 08:56:14;;;;;;;5.70;1.48;;;4.50;99.90;;;;;;4997464;28;20054;-84
2023/04/03 08:58:46;;;;;;;5.05;1.38;;;4.60;99.90;;;;;;4997862;28;20038;-87
2023/04/03 09:01:36;;;;;;;7.32;1.77;;;4.80;99.90;;;;;;4993988;28;20057;-88
2023/04/03 09:04:09;;;;;;;7.05;1.48;;;4.90;99.90;;;;;;4996146;28;20566;-88
2023/04/03 09:06:36;;;;;;;4.13;1.57;;;5.00;99.90;;;;;;4994819;28;20086;-88
2023/04/03 09:09:13;;;;;;;7.28;1.80;;;5.20;99.90;;;;;;4998855;28;20456;-86
2023/04/03 09:11:48;;;;;;;8.15;1.38;;;5.30;99.90;;;;;;4985066;28;20065;-85
2023/04/03 09:14:27;;;;;;;6.45;1.38;;;5.50;99.90;;;;;;4999615;28;20121;-85
2023/04/03 09:17:00;;;;;;;5.18;1.00;;;5.60;99.90;;;;;;4995262;28;20049;-86
2023/04/03 09:19:34;;;;;;;3.58;0.90;;;5.80;99.90;;;;;;4978381;28;20041;-86
2023/04/03 09:22:13;;;;;;;3.05;1.00;;;6.00;99.90;;;;;;4991303;28;20042;-87
2023/04/03 09:24:40;;;;;;;3.95;0.95;;;6.10;99.90;;;;;;4978112;28;20497;-84
2023/04/03 09:27:09;;;;;;;5.13;0.93;;;6.30;99.90;;;;;;4984123;28;20744;-84
2023/04/03 09:29:43;;;;;;;3.65;0.90;;;6.50;99.90;;;;;;4975281;28;20050;-84
2023/04/03 09:32:34;;;;;;;4.22;0.80;;;6.60;99.90;;;;;;4977404;28;20137;-85
2023/04/03 09:35:04;;;;;;;3.33;0.85;;;6.70;99.90;;;;;;4971295;28;20107;-92
2023/04/03 09:38:00;;;;;;;4.15;0.80;;;6.80;99.90;;;;;;4991897;28;20050;-88
2023/04/03 09:40:26;;;;;;;3.40;0.73;;;6.90;99.90;;;;;;4971813;28;20046;-88
2023/04/03 09:42:53;;;;;;;2.53;0.75;;;7.10;99.90;;;;;;4989810;28;20123;-86
2023/04/03 09:45:30;;;;;;;3.67;0.73;;;7.20;99.90;;;;;;4997185;28;20113;-95
2023/04/03 09:48:12;;;;;;;3.97;1.08;;;7.30;99.90;;;;;;5000304;28;20082;-91
2023/04/03 09:51:04;;;;;;;2.83;0.60;;;7.40;99.90;;;;;;4990732;28;20038;-92
2023/04/03 09:53:32;;;;;;;2.22;0.60;;;7.50;99.90;;;;;;4999527;28;20480;-92
2023/04/03 09:56:00;;;;;;;3.83;0.73;;;7.70;99.90;;;;;;5000829;28;20038;-93
2023/04/03 09:58:29;;;;;;;1.10;0.55;;;7.70;99.90;;;;;;5008162;28;20042;-92
2023/04/03 10:00:59;;;;;;;3.42;1.00;;;7.80;99.90;;;;;;4998704;28;20054;-91
2023/04/03 10:03:36;;;;;;;2.78;0.75;;;7.90;99.90;;;;;;5004755;28;20041;-91
2023/04/03 10:06:03;;;;;;;2.75;0.82;;;8.10;99.90;;;;;;4999810;28;20045;-92
2023/04/03 10:08:30;;;;;;;2.83;0.60;;;8.20;99.90;;;;;;4997637;28;20088;-92
2023/04/03 10:11:13;;;;;;;3.03;0.70;;;8.30;99.90;;;;;;4996763;28;20042;-91
2023/04/03 10:14:01;;;;;;;3.38;0.90;;;8.40;99.90;;;;;;5007171;23;20064;-89
2023/04/03 10:16:45;;;;;;;3.83;0.65;;;8.40;99.90;;;;;;4994472;28;20046;-92
2023/04/03 10:19:36;;;;;;;4.28;1.02;;;8.00;99.80;;;;;;4998874;28;20046;-91
2023/04/03 10:22:40;;;;;;;2.42;0.63;;;8.70;98.10;;;;;;5000455;28;20053;-90
2023/04/03 10:25:30;;;;;;;1.58;0.50;;;8.80;98.60;;;;;;4993319;28;20802;-91
2023/04/03 10:27:57;;;;;;;3.10;0.55;;;8.90;97.60;;;;;;5002508;28;20050;-90
2023/04/03 10:30:31;;;;;;;1.77;0.60;;;8.90;97.60;;;;;;4999514;28;20045;-90
2023/04/03 10:33:19;;;;;;;4.05;0.60;;;9.00;97.10;;;;;;5003662;28;20052;-90
2023/04/03 10:36:13;;;;;;;3.20;0.70;;;9.20;96.90;;;;;;4991268;28;20042;-90
2023/04/03 10:39:03;;;;;;;2.63;0.90;;;9.30;95.40;;;;;;4997699;28;20120;-91
2023/04/03 10:41:47;;;;;;;3.35;0.90;;;9.30;94.30;;;;;;4993645;28;20045;-91
2023/04/03 10:44:27;;;;;;;;;;;9.40;95.80;;;;;;4994257;28;20038;-92
2023/04/03 10:47:02;;;;;;;2.70;0.70;;;9.50;95.80;;;;;;4997965;28;19941;-91
2023/04/03 10:49:39;;;;;;;2.65;0.70;;;9.60;95.60;;;;;;4981884;28;20038;-91
2023/04/03 10:52:23;;;;;;;2.88;0.70;;;9.80;95.10;;;;;;5000130;28;20527;-90
2023/04/03 10:55:13;;;;;;;4.40;0.95;;;10.50;96.00;;;;;;4998352;28;20065;-91
2023/04/03 10:57:40;;;;;;;3.38;0.80;;;10.00;95.40;;;;;;4991913;28;20093;-91
2023/04/03 11:00:19;;;;;;;3.22;0.80;;;10.10;95.20;;;;;;4997221;28;20045;-90
2023/04/03 11:02:56;;;;;;;2.67;0.60;;;10.30;95.30;;;;;;4977080;28;20081;-91
2023/04/03 11:05:30;;;;;;;1.83;0.65;;;10.30;91.80;;;;;;4998097;28;20049;-90
2023/04/03 11:07:59;;;;;;;3.38;0.57;;;10.40;93.90;;;;;;4987113;28;20555;-91
2023/04/03 11:10:44;;;;;;;3.30;0.60;;;10.50;93.10;;;;;;4995937;28;20037;-91
2023/04/03 11:13:47;;;;;;;3.00;0.57;;;10.50;92.80;;;;;;4985706;28;20308;-91
2023/04/03 11:16:24;;;;;;;1.95;0.52;;;10.60;91.70;;;;;;5000463;28;20518;-90
2023/04/03 11:18:57;;;;;;;1.25;0.35;;;10.60;91.20;;;;;;4993027;28;20480;-90
2023/04/03 11:21:41;;;;;;;2.75;0.88;;;10.90;90.60;;;;;;5009517;28;20046;-90
2023/04/03 11:24:29;;;;;;;2.33;0.50;;;10.80;90.00;;;;;;4981124;28;20050;-90
2023/04/03 11:26:57;;;;;;;3.92;0.90;;;10.90;89.30;;;;;;4996422;28;20050;-90
2023/04/03 11:29:27;;;;;;;3.15;0.60;;;11.00;89.80;;;;;;4975301;28;20037;-89
2023/04/03 11:32:24;;;;;;;2.15;0.70;;;11.00;86.60;;;;;;5006646;28;20053;-91
2023/04/03 11:34:56;;;;;;;3.40;0.60;;;11.00;87.00;;;;;;4993399;28;20091;-91
2023/04/03 11:37:26;;;;;;;3.80;0.65;;;10.90;88.00;;;;;;4986391;28;20073;-91
2023/04/03 11:40:00;;;;;;;3.80;0.63;;;11.00;87.20;;;;;;5003566;23;20072;-93
2023/04/03 11:42:26;;;;;;;2.42;0.70;;;11.10;90.10;;;;;;4993642;28;20050;-90
2023/04/03 11:45:27;;;;;;;2.92;0.65;;;12.10;89.80;;;;;;4988569;28;20111;-89
2023/04/03 11:47:56;;;;;;;3.05;0.80;;;11.20;87.10;;;;;;5001335;28;20403;-90
2023/04/03 11:50:34;;;;;;;5.15;0.85;;;12.00;86.60;;;;;;5003475;28;20037;-90
2023/04/03 11:53:03;;;;;;;4.00;0.77;;;12.00;86.60;;;;;;4980501;28;20053;-91
2023/04/03 11:55:32;;;;;;;3.45;0.80;;;11.40;85.30;;;;;;5000665;28;20049;-90
2023/04/03 11:57:58;;;;;;;3.28;0.60;;;11.50;86.70;;;;;;5007095;28;20057;-91
2023/04/03 12:01:02;;;;;;;3.88;0.82;;;11.20;85.20;;;;;;5010165;28;20038;-90
2023/04/03 12:03:55;;;;;;;4.45;0.75;;;11.30;85.80;;;;;;4995936;28;20284;-92
2023/04/03 12:06:42;;;;;;;3.60;0.80;;;11.70;86.00;;;;;;4998433;28;20050;-91
2023/04/03 12:09:37;;;;;;;2.10;0.70;;;11.80;81.90;;;;;;4979879;28;20126;-91
2023/04/03 12:12:22;;;;;;;2.17;0.60;;;11.70;81.40;;;;;;4995814;28;20136;-90
2023/04/03 12:14:49;;;;;;;2.70;0.70;;;12.20;85.00;;;;;;4986471;28;20057;-90
2023/04/03 12:17:26;;;;;;;4.95;0.98;;;11.90;84.70;;;;;;4996514;28;20049;-88
2023/04/03 12:19:52;;;;;;;1.88;0.70;;;12.10;85.70;;;;;;4997789;28;20559;-92
2023/04/03 12:22:20;;;;;;;2.30;0.70;;;12.20;83.90;;;;;;4994452;28;20073;-89
2023/04/03 12:24:52;;;;;;;2.08;0.85;;;12.20;82.00;;;;;;4981736;28;20041;-92
2023/04/03 12:27:40;;;;;;;3.90;0.68;;;12.30;83.00;;;;;;4997309;28;20368;-93
2023/04/03 12:30:29;;;;;;;2.30;0.80;;;12.40;81.70;;;;;;4988760;28;20037;-92
2023/04/03 12:33:13;;;;;;;3.50;0.70;;;12.50;80.60;;;;;;4978554;28;20057;-91
2023/04/03 12:36:02;;;;;;;4.03;0.80;;;12.40;80.30;;;;;;4995655;28;20044;-91
2023/04/03 12:38:38;;;;;;;1.65;0.80;;;12.30;79.20;;;;;;4977776;28;20053;-90
2023/04/03 12:41:42;;;;;;;2.85;0.73;;;12.20;79.60;;;;;;4982743;28;20065;-90
2023/04/03 12:44:17;;;;;;;5.55;1.05;;;12.10;78.60;;;;;;4994253;28;20046;-89
2023/04/03 12:46:46;;;;;;;3.58;1.10;;;12.10;79.20;;;;;;4994232;28;20058;-89
2023/04/03 12:49:42;;;;;;;3.30;0.70;;;12.10;79.00;;;;;;4998217;28;20137;-89
2023/04/03 12:52:32;;;;;;;3.75;1.00;;;12.10;78.80;;;;;;4976186;28;20471;-89
2023/04/03 12:55:03;;;;;;;2.00;0.60;;;12.20;79.90;;;;;;4987115;28;20361;-90
2023/04/03 12:57:32;;;;;;;4.18;0.93;;;12.20;80.50;;;;;;4976650;28;20042;-90
2023/04/03 13:00:30;;;;;;;5.13;0.95;;;12.30;79.90;;;;;;5001020;28;20053;-90
2023/04/03 13:02:57;;;;;;;2.78;0.90;;;12.30;76.70;;;;;;4998666;28;20095;-90
2023/04/03 13:05:23;;;;;;;4.45;1.00;;;12.30;79.90;;;;;;4985255;28;20041;-95
2023/04/03 13:07:56;;;;;;;2.30;0.95;;;12.30;80.80;;;;;;4995393;28;20150;-89
2023/04/03 13:10:22;;;;;;;4.43;0.85;;;12.40;81.60;;;;;;4989647;28;20041;-89
2023/04/03 13:12:51;;;;;;;3.25;1.10;;;12.50;81.80;;;;;;4988902;28;20077;-89